sensor_id;sensor_type;location;lat;lon;timestamp;temperature;humidity
46816;DHT22;32787;53.316;8.670;2023-02-05T00:00:08;0.10;90.80
46816;DHT22;32787;53.316;8.670;2023-02-05T00:02:34;0.10;90.60
46816;DHT22;32787;53.316;8.670;2023-02-05T00:05:00;0.00;90.70
46816;DHT22;32787;53.316;8.670;2023-02-05T00:07:25;0.10;90.60
46816;DHT22;32787;53.316;8.670;2023-02-05T00:09:51;0.10;90.60
46816;DHT22;32787;53.316;8.670;2023-02-05T00:12:17;0.10;90.50
46816;DHT22;32787;53.316;8.670;2023-02-05T00:14:42;0.10;90.40
46816;DHT22;32787;53.316;8.670;2023-02-05T00:17:08;0.10;90.40
46816;DHT22;32787;53.316;8.670;2023-02-05T00:19:34;0.10;90.20
46816;DHT22;32787;53.316;8.670;2023-02-05T00:21:59;0.20;90.20
46816;DHT22;32787;53.316;8.670;2023-02-05T00:24:25;0.20;90.10
46816;DHT22;32787;53.316;8.670;2023-02-05T00:26:51;0.20;89.90
46816;DHT22;32787;53.316;8.670;2023-02-05T00:29:16;0.30;89.70
46816;DHT22;32787;53.316;8.670;2023-02-05T00:31:42;0.40;89.60
46816;DHT22;32787;53.316;8.670;2023-02-05T00:34:07;0.40;89.50
46816;DHT22;32787;53.316;8.670;2023-02-05T00:36:33;0.40;89.40
46816;DHT22;32787;53.316;8.670;2023-02-05T00:38:59;0.30;89.50
46816;DHT22;32787;53.316;8.670;2023-02-05T00:41:24;0.40;89.50
46816;DHT22;32787;53.316;8.670;2023-02-05T00:43:50;0.30;89.30
46816;DHT22;32787;53.316;8.670;2023-02-05T00:46:16;0.30;89.40
46816;DHT22;32787;53.316;8.670;2023-02-05T00:48:42;0.20;89.30
46816;DHT22;32787;53.316;8.670;2023-02-05T00:51:09;0.20;89.60
46816;DHT22;32787;53.316;8.670;2023-02-05T00:53:34;0.20;89.40
46816;DHT22;32787;53.316;8.670;2023-02-05T00:56:00;0.20;89.30
46816;DHT22;32787;53.316;8.670;2023-02-05T00:58:26;0.20;89.40
46816;DHT22;32787;53.316;8.670;2023-02-05T01:00:52;0.20;89.50
46816;DHT22;32787;53.316;8.670;2023-02-05T01:03:18;0.20;89.30
46816;DHT22;32787;53.316;8.670;2023-02-05T01:05:43;0.40;89.30
46816;DHT22;32787;53.316;8.670;2023-02-05T01:08:10;0.40;88.90
46816;DHT22;32787;53.316;8.670;2023-02-05T01:10:36;0.40;89.00
46816;DHT22;32787;53.316;8.670;2023-02-05T01:13:04;0.40;89.00
46816;DHT22;32787;53.316;8.670;2023-02-05T01:15:30;0.50;89.10
46816;DHT22;32787;53.316;8.670;2023-02-05T01:17:55;0.50;88.90
46816;DHT22;32787;53.316;8.670;2023-02-05T01:20:23;0.60;88.70
46816;DHT22;32787;53.316;8.670;2023-02-05T01:22:48;0.70;88.70
46816;DHT22;32787;53.316;8.670;2023-02-05T01:25:14;0.70;88.50
46816;DHT22;32787;53.316;8.670;2023-02-05T01:27:39;0.70;88.30
46816;DHT22;32787;53.316;8.670;2023-02-05T01:30:06;0.70;88.30
46816;DHT22;32787;53.316;8.670;2023-02-05T01:32:32;0.70;88.30
46816;DHT22;32787;53.316;8.670;2023-02-05T01:34:57;0.60;88.40
46816;DHT22;32787;53.316;8.670;2023-02-05T01:37:24;0.80;88.30
46816;DHT22;32787;53.316;8.670;2023-02-05T01:39:50;0.80;88.40
46816;DHT22;32787;53.316;8.670;2023-02-05T01:42:16;0.70;88.30
46816;DHT22;32787;53.316;8.670;2023-02-05T01:44:42;0.80;88.20
46816;DHT22;32787;53.316;8.670;2023-02-05T01:47:08;0.90;88.20
46816;DHT22;32787;53.316;8.670;2023-02-05T01:49:37;0.90;87.90
46816;DHT22;32787;53.316;8.670;2023-02-05T01:52:07;0.90;87.90
46816;DHT22;32787;53.316;8.670;2023-02-05T01:54:35;0.90;88.20
46816;DHT22;32787;53.316;8.670;2023-02-05T01:57:05;1.00;87.80
46816;DHT22;32787;53.316;8.670;2023-02-05T01:59:33;0.90;87.60
46816;DHT22;32787;53.316;8.670;2023-02-05T02:02:02;1.00;87.50
46816;DHT22;32787;53.316;8.670;2023-02-05T02:04:43;0.90;87.70
46816;DHT22;32787;53.316;8.670;2023-02-05T02:07:12;1.00;87.70
46816;DHT22;32787;53.316;8.670;2023-02-05T02:09:43;0.90;88.00
46816;DHT22;32787;53.316;8.670;2023-02-05T02:12:11;1.00;87.70
46816;DHT22;32787;53.316;8.670;2023-02-05T02:14:37;1.00;87.60
46816;DHT22;32787;53.316;8.670;2023-02-05T02:17:05;0.90;87.70
46816;DHT22;32787;53.316;8.670;2023-02-05T02:19:40;1.00;87.70
46816;DHT22;32787;53.316;8.670;2023-02-05T02:27:46;1.10;87.30
46816;DHT22;32787;53.316;8.670;2023-02-05T02:30:22;1.10;87.30
46816;DHT22;32787;53.316;8.670;2023-02-05T02:33:13;1.20;87.20
46816;DHT22;32787;53.316;8.670;2023-02-05T02:38:36;1.20;87.30
46816;DHT22;32787;53.316;8.670;2023-02-05T02:41:08;1.30;87.20
46816;DHT22;32787;53.316;8.670;2023-02-05T02:44:03;1.30;87.00
46816;DHT22;32787;53.316;8.670;2023-02-05T02:46:36;1.30;87.20
46816;DHT22;32787;53.316;8.670;2023-02-05T02:49:07;1.30;87.10
46816;DHT22;32787;53.316;8.670;2023-02-05T02:51:36;1.20;87.10
46816;DHT22;32787;53.316;8.670;2023-02-05T02:54:07;1.20;87.30
46816;DHT22;32787;53.316;8.670;2023-02-05T02:56:36;1.20;87.40
46816;DHT22;32787;53.316;8.670;2023-02-05T02:59:14;1.20;87.10
46816;DHT22;32787;53.316;8.670;2023-02-05T03:01:43;1.30;87.10
46816;DHT22;32787;53.316;8.670;2023-02-05T03:04:59;1.30;87.00
46816;DHT22;32787;53.316;8.670;2023-02-05T03:12:30;1.40;86.20
46816;DHT22;32787;53.316;8.670;2023-02-05T03:14:56;1.50;86.50
46816;DHT22;32787;53.316;8.670;2023-02-05T03:17:22;1.40;86.50
46816;DHT22;32787;53.316;8.670;2023-02-05T03:22:37;1.20;87.10
46816;DHT22;32787;53.316;8.670;2023-02-05T03:25:04;1.30;87.10
46816;DHT22;32787;53.316;8.670;2023-02-05T03:27:30;1.30;87.00
46816;DHT22;32787;53.316;8.670;2023-02-05T03:29:57;1.30;86.80
46816;DHT22;32787;53.316;8.670;2023-02-05T03:32:42;1.30;86.60
46816;DHT22;32787;53.316;8.670;2023-02-05T03:35:16;1.40;86.80
46816;DHT22;32787;53.316;8.670;2023-02-05T03:45:54;1.30;86.90
46816;DHT22;32787;53.316;8.670;2023-02-05T03:48:38;1.20;87.10
46816;DHT22;32787;53.316;8.670;2023-02-05T03:59:17;1.20;87.30
46816;DHT22;32787;53.316;8.670;2023-02-05T04:01:44;1.10;87.20
46816;DHT22;32787;53.316;8.670;2023-02-05T04:04:11;1.20;87.40
46816;DHT22;32787;53.316;8.670;2023-02-05T04:06:37;1.10;87.30
46816;DHT22;32787;53.316;8.670;2023-02-05T04:09:03;1.10;87.40
46816;DHT22;32787;53.316;8.670;2023-02-05T04:11:28;1.20;87.30
46816;DHT22;32787;53.316;8.670;2023-02-05T04:13:54;1.20;87.10
46816;DHT22;32787;53.316;8.670;2023-02-05T04:16:19;1.00;87.40
46816;DHT22;32787;53.316;8.670;2023-02-05T04:18:45;1.00;87.50
46816;DHT22;32787;53.316;8.670;2023-02-05T04:21:11;1.00;87.70
46816;DHT22;32787;53.316;8.670;2023-02-05T04:23:36;1.10;87.40
46816;DHT22;32787;53.316;8.670;2023-02-05T04:26:02;1.00;87.50
46816;DHT22;32787;53.316;8.670;2023-02-05T04:28:28;1.20;87.30
46816;DHT22;32787;53.316;8.670;2023-02-05T04:30:53;1.30;87.20
46816;DHT22;32787;53.316;8.670;2023-02-05T04:33:19;1.20;87.20
46816;DHT22;32787;53.316;8.670;2023-02-05T04:35:44;1.20;87.20
46816;DHT22;32787;53.316;8.670;2023-02-05T04:38:10;1.20;87.30
46816;DHT22;32787;53.316;8.670;2023-02-05T04:40:36;1.20;87.60
46816;DHT22;32787;53.316;8.670;2023-02-05T04:43:01;1.20;87.60
46816;DHT22;32787;53.316;8.670;2023-02-05T04:45:27;1.20;87.30
46816;DHT22;32787;53.316;8.670;2023-02-05T04:47:56;1.30;86.80
46816;DHT22;32787;53.316;8.670;2023-02-05T04:50:22;1.20;87.00
46816;DHT22;32787;53.316;8.670;2023-02-05T04:52:48;1.40;87.00
46816;DHT22;32787;53.316;8.670;2023-02-05T04:55:13;1.40;86.60
46816;DHT22;32787;53.316;8.670;2023-02-05T04:57:39;1.50;86.60
46816;DHT22;32787;53.316;8.670;2023-02-05T05:00:05;1.50;86.50
46816;DHT22;32787;53.316;8.670;2023-02-05T05:02:31;1.50;86.20
46816;DHT22;32787;53.316;8.670;2023-02-05T05:04:56;1.40;86.80
46816;DHT22;32787;53.316;8.670;2023-02-05T05:07:22;1.40;87.20
46816;DHT22;32787;53.316;8.670;2023-02-05T05:09:48;1.30;87.50
46816;DHT22;32787;53.316;8.670;2023-02-05T05:12:13;1.30;87.30
46816;DHT22;32787;53.316;8.670;2023-02-05T05:14:39;1.40;87.10
46816;DHT22;32787;53.316;8.670;2023-02-05T05:17:05;1.40;86.70
46816;DHT22;32787;53.316;8.670;2023-02-05T05:19:30;1.40;86.80
46816;DHT22;32787;53.316;8.670;2023-02-05T05:21:56;1.40;87.10
46816;DHT22;32787;53.316;8.670;2023-02-05T05:24:21;1.40;87.00
46816;DHT22;32787;53.316;8.670;2023-02-05T05:26:47;1.40;87.10
46816;DHT22;32787;53.316;8.670;2023-02-05T05:29:13;1.40;87.10
46816;DHT22;32787;53.316;8.670;2023-02-05T05:31:39;1.40;86.60
46816;DHT22;32787;53.316;8.670;2023-02-05T05:34:05;1.40;86.90
46816;DHT22;32787;53.316;8.670;2023-02-05T05:36:31;1.40;87.30
46816;DHT22;32787;53.316;8.670;2023-02-05T05:38:56;1.50;87.50
46816;DHT22;32787;53.316;8.670;2023-02-05T05:41:42;1.40;87.40
46816;DHT22;32787;53.316;8.670;2023-02-05T05:44:26;1.30;87.70
46816;DHT22;32787;53.316;8.670;2023-02-05T05:46:51;1.30;88.30
46816;DHT22;32787;53.316;8.670;2023-02-05T05:49:17;1.10;88.60
46816;DHT22;32787;53.316;8.670;2023-02-05T05:51:43;1.20;88.80
46816;DHT22;32787;53.316;8.670;2023-02-05T05:54:08;1.10;88.90
46816;DHT22;32787;53.316;8.670;2023-02-05T05:56:34;1.00;89.30
46816;DHT22;32787;53.316;8.670;2023-02-05T05:59:00;1.00;89.50
46816;DHT22;32787;53.316;8.670;2023-02-05T06:01:26;1.00;89.70
46816;DHT22;32787;53.316;8.670;2023-02-05T06:03:52;1.00;90.00
46816;DHT22;32787;53.316;8.670;2023-02-05T06:06:17;1.00;90.00
46816;DHT22;32787;53.316;8.670;2023-02-05T06:08:43;0.90;90.20
46816;DHT22;32787;53.316;8.670;2023-02-05T06:11:09;1.00;90.50
46816;DHT22;32787;53.316;8.670;2023-02-05T06:13:34;0.90;90.80
46816;DHT22;32787;53.316;8.670;2023-02-05T06:16:00;0.80;90.90
46816;DHT22;32787;53.316;8.670;2023-02-05T06:18:26;0.90;91.20
46816;DHT22;32787;53.316;8.670;2023-02-05T06:20:51;0.90;91.30
46816;DHT22;32787;53.316;8.670;2023-02-05T06:23:17;1.10;91.30
46816;DHT22;32787;53.316;8.670;2023-02-05T06:25:42;1.10;91.10
46816;DHT22;32787;53.316;8.670;2023-02-05T06:28:08;1.00;91.10
46816;DHT22;32787;53.316;8.670;2023-02-05T06:30:34;1.00;91.20
46816;DHT22;32787;53.316;8.670;2023-02-05T06:32:59;1.00;91.10
46816;DHT22;32787;53.316;8.670;2023-02-05T06:35:25;1.00;91.10
46816;DHT22;32787;53.316;8.670;2023-02-05T06:37:50;1.00;91.20
46816;DHT22;32787;53.316;8.670;2023-02-05T06:40:16;0.90;91.20
46816;DHT22;32787;53.316;8.670;2023-02-05T06:42:43;0.90;91.50
46816;DHT22;32787;53.316;8.670;2023-02-05T06:45:09;0.90;91.70
46816;DHT22;32787;53.316;8.670;2023-02-05T06:47:35;0.90;91.90
46816;DHT22;32787;53.316;8.670;2023-02-05T06:50:00;0.90;91.80
46816;DHT22;32787;53.316;8.670;2023-02-05T06:52:26;1.00;91.90
46816;DHT22;32787;53.316;8.670;2023-02-05T06:54:51;1.10;91.70
46816;DHT22;32787;53.316;8.670;2023-02-05T06:57:17;1.10;91.50
46816;DHT22;32787;53.316;8.670;2023-02-05T06:59:42;1.10;91.30
46816;DHT22;32787;53.316;8.670;2023-02-05T07:02:12;1.10;91.40
46816;DHT22;32787;53.316;8.670;2023-02-05T07:04:37;1.00;91.40
46816;DHT22;32787;53.316;8.670;2023-02-05T07:07:03;0.90;91.50
46816;DHT22;32787;53.316;8.670;2023-02-05T07:09:28;1.00;91.60
46816;DHT22;32787;53.316;8.670;2023-02-05T07:11:54;1.00;91.60
46816;DHT22;32787;53.316;8.670;2023-02-05T07:14:20;1.00;91.70
46816;DHT22;32787;53.316;8.670;2023-02-05T07:16:45;1.10;91.50
46816;DHT22;32787;53.316;8.670;2023-02-05T07:19:11;1.10;91.40
46816;DHT22;32787;53.316;8.670;2023-02-05T07:21:36;1.20;91.40
46816;DHT22;32787;53.316;8.670;2023-02-05T07:24:02;1.10;91.50
46816;DHT22;32787;53.316;8.670;2023-02-05T07:26:28;1.10;91.70
46816;DHT22;32787;53.316;8.670;2023-02-05T07:28:53;1.10;91.90
46816;DHT22;32787;53.316;8.670;2023-02-05T07:31:19;1.20;91.90
46816;DHT22;32787;53.316;8.670;2023-02-05T07:33:46;1.40;91.80
46816;DHT22;32787;53.316;8.670;2023-02-05T07:36:14;1.30;91.40
46816;DHT22;32787;53.316;8.670;2023-02-05T07:38:44;1.20;91.50
46816;DHT22;32787;53.316;8.670;2023-02-05T07:41:12;1.20;91.60
46816;DHT22;32787;53.316;8.670;2023-02-05T07:43:39;1.20;91.60
46816;DHT22;32787;53.316;8.670;2023-02-05T07:46:07;1.10;91.60
46816;DHT22;32787;53.316;8.670;2023-02-05T07:48:33;1.20;91.80
46816;DHT22;32787;53.316;8.670;2023-02-05T07:50:59;1.10;91.70
46816;DHT22;32787;53.316;8.670;2023-02-05T07:53:25;1.20;91.90
46816;DHT22;32787;53.316;8.670;2023-02-05T07:55:51;1.20;91.90
46816;DHT22;32787;53.316;8.670;2023-02-05T07:58:17;1.10;91.90
46816;DHT22;32787;53.316;8.670;2023-02-05T08:00:43;1.30;92.00
46816;DHT22;32787;53.316;8.670;2023-02-05T08:03:09;1.20;91.80
46816;DHT22;32787;53.316;8.670;2023-02-05T08:05:36;1.30;91.90
46816;DHT22;32787;53.316;8.670;2023-02-05T08:08:02;1.20;91.80
46816;DHT22;32787;53.316;8.670;2023-02-05T08:10:28;1.10;91.90
46816;DHT22;32787;53.316;8.670;2023-02-05T08:12:54;1.00;92.00
46816;DHT22;32787;53.316;8.670;2023-02-05T08:15:19;0.90;92.30
46816;DHT22;32787;53.316;8.670;2023-02-05T08:17:45;1.00;92.40
46816;DHT22;32787;53.316;8.670;2023-02-05T08:20:11;1.10;92.50
46816;DHT22;32787;53.316;8.670;2023-02-05T08:22:39;1.20;92.50
46816;DHT22;32787;53.316;8.670;2023-02-05T08:25:08;1.10;92.20
46816;DHT22;32787;53.316;8.670;2023-02-05T08:27:35;1.00;92.20
46816;DHT22;32787;53.316;8.670;2023-02-05T08:30:03;1.10;92.20
46816;DHT22;32787;53.316;8.670;2023-02-05T08:32:28;1.00;92.10
46816;DHT22;32787;53.316;8.670;2023-02-05T08:34:54;1.20;92.20
46816;DHT22;32787;53.316;8.670;2023-02-05T08:37:20;1.20;92.10
46816;DHT22;32787;53.316;8.670;2023-02-05T08:39:45;1.20;92.20
46816;DHT22;32787;53.316;8.670;2023-02-05T08:42:11;1.20;92.30
46816;DHT22;32787;53.316;8.670;2023-02-05T08:44:37;1.30;92.30
46816;DHT22;32787;53.316;8.670;2023-02-05T08:47:03;1.20;92.30
46816;DHT22;32787;53.316;8.670;2023-02-05T08:49:28;1.20;92.40
46816;DHT22;32787;53.316;8.670;2023-02-05T08:51:54;1.30;92.40
46816;DHT22;32787;53.316;8.670;2023-02-05T08:54:20;1.30;92.20
46816;DHT22;32787;53.316;8.670;2023-02-05T08:56:48;1.50;92.20
46816;DHT22;32787;53.316;8.670;2023-02-05T08:59:14;1.30;91.90
46816;DHT22;32787;53.316;8.670;2023-02-05T09:01:42;1.30;92.00
46816;DHT22;32787;53.316;8.670;2023-02-05T09:04:19;1.20;91.90
46816;DHT22;32787;53.316;8.670;2023-02-05T09:06:45;1.40;92.10
46816;DHT22;32787;53.316;8.670;2023-02-05T09:09:12;1.40;92.00
46816;DHT22;32787;53.316;8.670;2023-02-05T09:11:38;1.40;92.00
46816;DHT22;32787;53.316;8.670;2023-02-05T09:14:04;1.60;92.10
46816;DHT22;32787;53.316;8.670;2023-02-05T09:16:30;1.50;91.70
46816;DHT22;32787;53.316;8.670;2023-02-05T09:18:57;1.40;91.70
46816;DHT22;32787;53.316;8.670;2023-02-05T09:21:23;1.50;92.00
46816;DHT22;32787;53.316;8.670;2023-02-05T09:23:50;1.70;91.80
46816;DHT22;32787;53.316;8.670;2023-02-05T09:26:15;1.60;91.70
46816;DHT22;32787;53.316;8.670;2023-02-05T09:28:41;1.60;91.70
46816;DHT22;32787;53.316;8.670;2023-02-05T09:31:18;1.60;91.70
46816;DHT22;32787;53.316;8.670;2023-02-05T09:33:45;1.50;91.70
46816;DHT22;32787;53.316;8.670;2023-02-05T09:36:16;1.70;91.80
46816;DHT22;32787;53.316;8.670;2023-02-05T09:38:42;1.60;91.70
46816;DHT22;32787;53.316;8.670;2023-02-05T09:41:25;1.70;91.50
46816;DHT22;32787;53.316;8.670;2023-02-05T09:46:40;1.70;91.50
46816;DHT22;32787;53.316;8.670;2023-02-05T09:49:44;1.60;91.40
46816;DHT22;32787;53.316;8.670;2023-02-05T09:52:22;1.70;91.60
46816;DHT22;32787;53.316;8.670;2023-02-05T09:54:55;1.60;91.60
46816;DHT22;32787;53.316;8.670;2023-02-05T09:57:34;1.60;91.80
46816;DHT22;32787;53.316;8.670;2023-02-05T10:00:45;1.60;91.70
46816;DHT22;32787;53.316;8.670;2023-02-05T10:11:23;1.70;91.70
46816;DHT22;32787;53.316;8.670;2023-02-05T10:14:08;1.60;91.70
46816;DHT22;32787;53.316;8.670;2023-02-05T10:20:18;1.40;92.10
46816;DHT22;32787;53.316;8.670;2023-02-05T10:34:30;1.70;92.10
46816;DHT22;32787;53.316;8.670;2023-02-05T10:36:52;1.70;92.10
46816;DHT22;32787;53.316;8.670;2023-02-05T10:39:20;1.70;92.10
46816;DHT22;32787;53.316;8.670;2023-02-05T10:41:54;1.90;92.20
46816;DHT22;32787;53.316;8.670;2023-02-05T10:44:43;1.90;91.90
46816;DHT22;32787;53.316;8.670;2023-02-05T10:47:23;1.90;92.00
46816;DHT22;32787;53.316;8.670;2023-02-05T10:50:00;2.10;91.70
46816;DHT22;32787;53.316;8.670;2023-02-05T10:52:27;2.20;91.30
46816;DHT22;32787;53.316;8.670;2023-02-05T10:54:53;2.10;91.30
46816;DHT22;32787;53.316;8.670;2023-02-05T10:57:20;2.20;91.50
46816;DHT22;32787;53.316;8.670;2023-02-05T10:59:58;2.40;91.40
46816;DHT22;32787;53.316;8.670;2023-02-05T11:02:31;2.40;91.30
46816;DHT22;32787;53.316;8.670;2023-02-05T11:05:12;2.40;91.50
46816;DHT22;32787;53.316;8.670;2023-02-05T11:07:47;2.40;91.40
46816;DHT22;32787;53.316;8.670;2023-02-05T11:10:21;2.50;91.10
46816;DHT22;32787;53.316;8.670;2023-02-05T11:13:04;2.30;90.90
46816;DHT22;32787;53.316;8.670;2023-02-05T11:15:56;2.10;91.20
46816;DHT22;32787;53.316;8.670;2023-02-05T11:18:26;2.20;91.50
46816;DHT22;32787;53.316;8.670;2023-02-05T11:21:03;2.30;91.70
46816;DHT22;32787;53.316;8.670;2023-02-05T11:23:30;2.40;91.80
46816;DHT22;32787;53.316;8.670;2023-02-05T11:26:15;2.50;91.70
46816;DHT22;32787;53.316;8.670;2023-02-05T11:28:42;2.50;91.70
46816;DHT22;32787;53.316;8.670;2023-02-05T11:31:19;2.60;91.70
46816;DHT22;32787;53.316;8.670;2023-02-05T11:33:46;2.70;91.40
46816;DHT22;32787;53.316;8.670;2023-02-05T11:36:21;2.90;91.00
46816;DHT22;32787;53.316;8.670;2023-02-05T11:38:53;2.70;91.00
46816;DHT22;32787;53.316;8.670;2023-02-05T11:41:32;2.60;91.40
46816;DHT22;32787;53.316;8.670;2023-02-05T11:44:20;3.00;91.30
46816;DHT22;32787;53.316;8.670;2023-02-05T11:46:49;2.90;90.80
46816;DHT22;32787;53.316;8.670;2023-02-05T11:49:42;2.90;91.00
46816;DHT22;32787;53.316;8.670;2023-02-05T11:52:10;3.10;91.30
46816;DHT22;32787;53.316;8.670;2023-02-05T11:54:37;2.90;90.90
46816;DHT22;32787;53.316;8.670;2023-02-05T11:57:29;2.90;91.30
46816;DHT22;32787;53.316;8.670;2023-02-05T11:59:56;3.10;91.60
46816;DHT22;32787;53.316;8.670;2023-02-05T12:02:32;3.20;90.90
46816;DHT22;32787;53.316;8.670;2023-02-05T12:08:23;3.40;90.10
46816;DHT22;32787;53.316;8.670;2023-02-05T12:10:45;3.40;90.10
46816;DHT22;32787;53.316;8.670;2023-02-05T12:13:46;3.20;90.70
46816;DHT22;32787;53.316;8.670;2023-02-05T12:16:42;3.10;90.90
46816;DHT22;32787;53.316;8.670;2023-02-05T12:19:24;3.30;91.10
46816;DHT22;32787;53.316;8.670;2023-02-05T12:24:51;3.30;91.00
46816;DHT22;32787;53.316;8.670;2023-02-05T12:36:27;3.30;91.30
46816;DHT22;32787;53.316;8.670;2023-02-05T12:52:49;3.30;91.40
46816;DHT22;32787;53.316;8.670;2023-02-05T12:58:12;3.60;91.70
46816;DHT22;32787;53.316;8.670;2023-02-05T13:01:16;3.60;91.30
46816;DHT22;32787;53.316;8.670;2023-02-05T13:03:54;3.50;91.30
46816;DHT22;32787;53.316;8.670;2023-02-05T13:06:33;3.50;91.70
46816;DHT22;32787;53.316;8.670;2023-02-05T13:09:05;3.70;91.60
46816;DHT22;32787;53.316;8.670;2023-02-05T13:14:24;4.40;91.50
46816;DHT22;32787;53.316;8.670;2023-02-05T13:17:18;4.40;90.50
46816;DHT22;32787;53.316;8.670;2023-02-05T13:19:48;4.40;90.10
46816;DHT22;32787;53.316;8.670;2023-02-05T13:22:20;4.50;90.30
46816;DHT22;32787;53.316;8.670;2023-02-05T13:25:16;4.80;90.00
46816;DHT22;32787;53.316;8.670;2023-02-05T13:28:28;4.70;89.80
46816;DHT22;32787;53.316;8.670;2023-02-05T13:31:30;4.30;90.30
46816;DHT22;32787;53.316;8.670;2023-02-05T13:34:04;4.10;90.60
46816;DHT22;32787;53.316;8.670;2023-02-05T13:36:47;4.10;91.10
46816;DHT22;32787;53.316;8.670;2023-02-05T13:39:32;4.30;91.40
46816;DHT22;32787;53.316;8.670;2023-02-05T13:50:41;4.30;90.90
46816;DHT22;32787;53.316;8.670;2023-02-05T13:53:28;4.20;91.10
46816;DHT22;32787;53.316;8.670;2023-02-05T13:58:52;4.20;91.80
46816;DHT22;32787;53.316;8.670;2023-02-05T14:01:29;4.40;92.00
46816;DHT22;32787;53.316;8.670;2023-02-05T14:04:02;4.40;91.90
46816;DHT22;32787;53.316;8.670;2023-02-05T14:06:35;4.30;91.50
46816;DHT22;32787;53.316;8.670;2023-02-05T14:09:05;4.40;91.50
46816;DHT22;32787;53.316;8.670;2023-02-05T14:16:41;4.40;91.40
46816;DHT22;32787;53.316;8.670;2023-02-05T14:19:50;4.20;91.40
46816;DHT22;32787;53.316;8.670;2023-02-05T14:22:10;4.30;91.40
46816;DHT22;32787;53.316;8.670;2023-02-05T14:24:43;4.40;91.00
46816;DHT22;32787;53.316;8.670;2023-02-05T14:35:37;4.40;91.10
46816;DHT22;32787;53.316;8.670;2023-02-05T14:38:27;4.50;90.90
46816;DHT22;32787;53.316;8.670;2023-02-05T14:41:11;4.50;90.90
46816;DHT22;32787;53.316;8.670;2023-02-05T14:43:39;4.40;91.30
46816;DHT22;32787;53.316;8.670;2023-02-05T14:46:37;4.40;91.10
46816;DHT22;32787;53.316;8.670;2023-02-05T14:49:06;4.40;91.50
46816;DHT22;32787;53.316;8.670;2023-02-05T14:51:48;4.50;91.30
46816;DHT22;32787;53.316;8.670;2023-02-05T14:54:19;4.50;91.10
46816;DHT22;32787;53.316;8.670;2023-02-05T14:56:51;4.60;91.10
46816;DHT22;32787;53.316;8.670;2023-02-05T14:59:29;4.70;91.00
46816;DHT22;32787;53.316;8.670;2023-02-05T15:01:57;4.60;91.00
46816;DHT22;32787;53.316;8.670;2023-02-05T15:07:14;4.70;90.50
46816;DHT22;32787;53.316;8.670;2023-02-05T15:10:02;4.60;90.80
46816;DHT22;32787;53.316;8.670;2023-02-05T15:14:58;4.60;90.80
46816;DHT22;32787;53.316;8.670;2023-02-05T15:20:03;4.60;90.60
46816;DHT22;32787;53.316;8.670;2023-02-05T15:22:36;4.60;90.90
46816;DHT22;32787;53.316;8.670;2023-02-05T15:25:09;4.50;91.10
46816;DHT22;32787;53.316;8.670;2023-02-05T15:27:45;4.40;90.80
46816;DHT22;32787;53.316;8.670;2023-02-05T15:30:24;4.40;91.40
46816;DHT22;32787;53.316;8.670;2023-02-05T15:33:00;4.40;91.10
46816;DHT22;32787;53.316;8.670;2023-02-05T15:35:29;4.20;91.30
46816;DHT22;32787;53.316;8.670;2023-02-05T15:38:01;4.30;91.50
46816;DHT22;32787;53.316;8.670;2023-02-05T15:40:31;4.40;91.50
46816;DHT22;32787;53.316;8.670;2023-02-05T15:42:59;4.40;91.50
46816;DHT22;32787;53.316;8.670;2023-02-05T15:45:32;4.40;91.50
46816;DHT22;32787;53.316;8.670;2023-02-05T15:50:24;4.30;91.60
46816;DHT22;32787;53.316;8.670;2023-02-05T15:52:50;4.30;91.70
46816;DHT22;32787;53.316;8.670;2023-02-05T15:55:19;4.20;91.80
46816;DHT22;32787;53.316;8.670;2023-02-05T15:57:46;4.20;91.80
46816;DHT22;32787;53.316;8.670;2023-02-05T16:00:21;4.20;92.00
46816;DHT22;32787;53.316;8.670;2023-02-05T16:02:53;4.40;91.90
46816;DHT22;32787;53.316;8.670;2023-02-05T16:05:21;4.50;91.70
46816;DHT22;32787;53.316;8.670;2023-02-05T16:07:48;4.40;91.40
46816;DHT22;32787;53.316;8.670;2023-02-05T16:10:31;4.30;91.80
46816;DHT22;32787;53.316;8.670;2023-02-05T16:18:01;4.10;92.20
46816;DHT22;32787;53.316;8.670;2023-02-05T16:20:38;4.00;92.30
46816;DHT22;32787;53.316;8.670;2023-02-05T16:23:25;4.00;92.40
46816;DHT22;32787;53.316;8.670;2023-02-05T16:26:29;4.20;92.50
46816;DHT22;32787;53.316;8.670;2023-02-05T16:28:55;4.10;92.40
46816;DHT22;32787;53.316;8.670;2023-02-05T16:31:24;4.10;92.40
46816;DHT22;32787;53.316;8.670;2023-02-05T16:36:33;3.90;92.30
46816;DHT22;32787;53.316;8.670;2023-02-05T16:39:04;4.00;92.40
46816;DHT22;32787;53.316;8.670;2023-02-05T16:41:36;3.90;92.50
46816;DHT22;32787;53.316;8.670;2023-02-05T16:44:04;3.70;92.60
46816;DHT22;32787;53.316;8.670;2023-02-05T16:46:32;3.60;92.50
46816;DHT22;32787;53.316;8.670;2023-02-05T16:49:00;3.40;92.50
46816;DHT22;32787;53.316;8.670;2023-02-05T16:56:49;2.80;92.80
46816;DHT22;32787;53.316;8.670;2023-02-05T16:59:20;2.70;92.90
46816;DHT22;32787;53.316;8.670;2023-02-05T17:01:48;2.60;92.80
46816;DHT22;32787;53.316;8.670;2023-02-05T17:06:54;2.40;93.00
46816;DHT22;32787;53.316;8.670;2023-02-05T17:09:39;2.30;93.10
46816;DHT22;32787;53.316;8.670;2023-02-05T17:12:34;2.10;93.30
46816;DHT22;32787;53.316;8.670;2023-02-05T17:17:55;2.00;93.30
46816;DHT22;32787;53.316;8.670;2023-02-05T17:20:27;1.90;93.40
46816;DHT22;32787;53.316;8.670;2023-02-05T17:25:26;1.70;93.40
46816;DHT22;32787;53.316;8.670;2023-02-05T17:27:52;1.60;93.50
46816;DHT22;32787;53.316;8.670;2023-02-05T17:30:18;1.60;93.60
46816;DHT22;32787;53.316;8.670;2023-02-05T17:32:45;1.60;93.50
46816;DHT22;32787;53.316;8.670;2023-02-05T17:35:15;1.50;93.60
46816;DHT22;32787;53.316;8.670;2023-02-05T17:37:41;1.40;93.60
46816;DHT22;32787;53.316;8.670;2023-02-05T17:40:08;1.40;93.80
46816;DHT22;32787;53.316;8.670;2023-02-05T17:42:34;1.50;93.60
46816;DHT22;32787;53.316;8.670;2023-02-05T17:44:59;1.40;93.70
46816;DHT22;32787;53.316;8.670;2023-02-05T17:47:25;1.40;93.60
46816;DHT22;32787;53.316;8.670;2023-02-05T17:49:50;1.90;94.00
46816;DHT22;32787;53.316;8.670;2023-02-05T17:52:16;1.90;94.00
46816;DHT22;32787;53.316;8.670;2023-02-05T17:54:43;2.00;94.00
46816;DHT22;32787;53.316;8.670;2023-02-05T17:57:21;1.80;93.90
46816;DHT22;32787;53.316;8.670;2023-02-05T17:59:48;1.70;94.00
46816;DHT22;32787;53.316;8.670;2023-02-05T18:02:15;1.50;93.90
46816;DHT22;32787;53.316;8.670;2023-02-05T18:04:41;1.40;93.80
46816;DHT22;32787;53.316;8.670;2023-02-05T18:07:24;1.30;93.70
46816;DHT22;32787;53.316;8.670;2023-02-05T18:09:52;1.20;93.80
46816;DHT22;32787;53.316;8.670;2023-02-05T18:12:17;1.40;93.80
46816;DHT22;32787;53.316;8.670;2023-02-05T18:14:43;1.40;93.70
46816;DHT22;32787;53.316;8.670;2023-02-05T18:17:09;1.30;93.60
46816;DHT22;32787;53.316;8.670;2023-02-05T18:19:34;1.20;93.60
46816;DHT22;32787;53.316;8.670;2023-02-05T18:22:00;1.10;93.50
46816;DHT22;32787;53.316;8.670;2023-02-05T18:24:26;1.00;93.60
46816;DHT22;32787;53.316;8.670;2023-02-05T18:26:52;0.90;93.70
46816;DHT22;32787;53.316;8.670;2023-02-05T18:29:18;1.10;93.70
46816;DHT22;32787;53.316;8.670;2023-02-05T18:31:46;1.20;93.70
46816;DHT22;32787;53.316;8.670;2023-02-05T18:34:12;1.10;93.80